Latest Weather Observations for Moorabbin Airport

IDV60801

Issued at 9:02 am EDT Monday 23 January 2017 (issued every 30 minutes, with the page automatically refreshed every 10 minutes)

About weather observations | Map of weather stations | Latest weather observations for VIC | Other Formats
Station Details ID: 086077 Name: MOORABBIN AIRPORT Lat: -37.98 Lon: 145.10 Height: 12.1 m
Data from the previous 72 hours. | See also: Recent months at Moorabbin Airport
Date/Time
EDT
Temp
°C
App
Temp
°C
Dew
Point
°C
Rel
Hum
%
Delta-T
°C
Wind Press
QNH
hPa
Press
MSL
hPa
Rain since
9am
mm
Dir  Spd
km/h
Gust
km/h
Spd
kts
Gust
kts
23/09:00am 24.4 25.5 16.6 61 4.8 NE 6 9 3 5 1006.1 1006.1 0.0
23/08:30am 22.6 23.2 15.7 65 4.2 ESE 7 9 4 5 1006.4 1006.4 0.0
23/08:00am 21.1 21.6 15.6 71 3.3 ESE 7 9 4 5 1006.4 1006.4 0.0
23/07:30am 19.7 20.2 14.9 74 2.8 ENE 6 7 3 4 1006.3 1006.3 0.0
23/07:00am 19.2 19.2 14.2 73 2.9 E 7 7 4 4 1006.5 1006.5 0.0
23/06:30am 19.5 19.7 14.7 74 2.8 ENE 7 11 4 6 1006.5 1006.5 0.0
23/06:00am 19.0 19.2 14.1 73 2.8 ESE 6 7 3 4 1006.7 1006.7 0.0
23/05:30am 19.4 19.1 14.4 73 2.9 ENE 9 11 5 6 1006.6 1006.6 0.0
23/05:00am 18.5 19.0 14.0 75 2.6 SSE 4 6 2 3 1006.9 1006.9 0.0
23/04:30am 18.1 18.0 13.4 74 2.7 ESE 6 6 3 3 1006.9 1006.9 0.0
23/04:00am 18.7 18.8 14.0 74 2.7 SE 6 7 3 4 1007.2 1007.2 0.0
23/03:30am 18.7 19.6 15.2 80 2.1 SSE 4 6 2 3 1007.5 1007.5 0.0
23/03:00am 19.7 22.1 17.1 85 1.6 CALM 0 4 0 2 1007.5 1007.5 0.0
23/02:30am 20.1 21.6 17.5 85 1.6 NNW 6 9 3 5 1007.8 1007.8 0.0
23/02:00am 20.1 21.9 17.5 85 1.6 WNW 4 6 2 3 1008.1 1008.1 0.0
23/01:30am 20.2 21.3 17.0 82 1.9 WNW 7 11 4 6 1008.4 1008.4 0.0
23/01:00am 20.1 20.0 14.9 72 3.1 NNE 9 11 5 6 1008.5 1008.5 0.0
23/12:30am 19.9 21.3 14.3 70 3.2 CALM 0 0 0 0 1009.1 1009.1 0.0
23/12:00am 20.7 21.1 14.8 69 3.5 NE 6 7 3 4 1009.5 1009.5 0.0
 
Date/Time
EDT
Temp
°C
App
Temp
°C
Dew
Point
°C
Rel
Hum
%
Delta-T
°C
Wind Press
QNH
hPa
Press
MSL
hPa
Rain since
9am
mm
Dir  Spd
km/h
Gust
km/h
Spd
kts
Gust
kts
22/11:30pm 20.2 21.4 13.9 67 3.6 CALM 0 0 0 0 1009.6 1009.6 0.0
22/11:00pm 20.5 19.8 14.4 68 3.6 ESE 11 13 6 7 1009.9 1009.9 0.0
22/10:30pm 21.4 20.9 15.0 67 3.8 ESE 11 13 6 7 1010.3 1010.3 0.0
22/10:00pm 21.6 21.8 15.7 69 3.5 ESE 9 11 5 6 1010.1 1010.1 0.0
22/09:30pm 22.5 21.6 15.8 66 4.0 ESE 15 22 8 12 1010.3 1010.3 0.0
22/09:00pm 22.9 21.7 16.2 66 4.1 ESE 17 20 9 11 1010.3 1010.3 0.0
22/08:30pm 23.4 22.2 16.0 63 4.5 ESE 17 22 9 12 1010.5 1010.5 0.0
22/08:00pm 24.5 22.7 16.0 59 5.2 ESE 20 26 11 14 1010.4 1010.4 0.0
22/07:30pm 25.6 23.2 15.3 53 6.2 SE 22 28 12 15 1010.3 1010.3 0.0
22/07:00pm 26.8 23.8 14.9 48 7.2 SE 24 30 13 16 1010.2 1010.2 0.0
22/06:30pm 27.8 25.4 15.5 47 7.5 SE 22 28 12 15 1010.4 1010.4 0.0
22/06:00pm 27.9 26.5 16.5 50 7.1 S 19 24 10 13 1010.6 1010.6 0.0
22/05:30pm 26.3 25.2 17.4 58 5.6 SSW 19 26 10 14 1010.9 1010.9 0.0
22/05:00pm 25.1 23.5 16.5 59 5.3 SW 20 26 11 14 1011.3 1011.3 0.0
22/04:30pm 25.3 23.7 16.4 57 5.5 SSW 20 24 11 13 1011.7 1011.7 0.0
22/04:00pm 24.6 22.7 16.8 62 4.8 SW 22 26 12 14 1012.0 1012.0 0.0
22/03:30pm 25.4 24.3 17.3 61 5.0 SW 19 20 10 11 1012.2 1012.2 0.0
22/03:00pm 24.8 23.3 15.4 56 5.7 SW 17 20 9 11 1012.6 1012.6 0.0
22/02:30pm 25.0 23.1 15.3 55 5.8 SW 19 22 10 12 1012.9 1012.9 0.0
22/02:00pm 25.6 24.9 16.5 57 5.6 SW 15 20 8 11 1013.2 1013.2 0.0
22/01:30pm 26.2 25.7 12.6 43 7.9 ESE 7 13 4 7 1013.5 1013.5 0.0
22/01:00pm 25.6 23.9 12.4 43 7.6 SE 13 20 7 11 1013.6 1013.6 0.0
22/12:30pm 24.9 23.1 12.2 45 7.3 ESE 13 20 7 11 1014.0 1014.0 0.0
22/12:00pm 23.6 21.8 12.0 48 6.6 ESE 13 22 7 12 1014.4 1014.4 0.0
22/11:30am 22.6 21.4 11.7 50 6.1 ESE 9 20 5 11 1014.8 1014.8 0.0
22/11:00am 21.4 19.8 11.7 54 5.4 ESE 11 19 6 10 1015.1 1015.1 0.0
22/10:30am 20.5 18.8 12.5 60 4.5 ESE 13 19 7 10 1015.5 1015.5 0.0
22/10:00am 19.6 18.2 12.1 62 4.2 ESE 11 17 6 9 1016.0 1016.0 0.0
22/09:30am 18.6 17.1 11.9 65 3.7 SE 11 17 6 9 1016.3 1016.3 0.0
22/09:00am 17.9 17.2 11.9 68 3.3 ESE 7 11 4 6 1016.6 1016.6 0.0
22/08:30am 16.7 16.8 12.7 77 2.2 NE 4 11 2 6 1016.8 1016.8 0.0
22/08:00am 15.2 15.0 12.9 86 1.3 N 6 7 3 4 1016.5 1016.5 0.0
22/07:30am 14.1 14.5 12.5 90 0.9 NE 2 7 1 4 1016.4 1016.4 0.0
22/07:00am 12.4 12.4 11.3 93 0.6 ENE 2 6 1 3 1016.3 1016.3 0.0
22/06:30am 11.3 11.3 9.9 91 0.7 CALM 0 0 0 0 1016.3 1016.3 0.0
22/06:00am 11.4 11.4 9.8 90 0.8 CALM 0 0 0 0 1016.0 1016.0 0.0
22/05:30am 11.8 11.5 10.0 89 0.9 E 2 6 1 3 1015.7 1015.7 0.0
22/05:00am 12.4 12.6 10.6 89 0.9 CALM 0 0 0 0 1015.6 1015.6 0.0
22/04:30am 12.3 12.5 10.5 89 0.9 CALM 0 0 0 0 1015.3 1015.3 0.0
22/04:00am 12.6 12.8 10.7 88 1.0 CALM 0 0 0 0 1015.4 1015.4 0.0
22/03:30am 12.9 13.2 10.8 87 1.1 CALM 0 0 0 0 1015.5 1015.5 0.0
22/03:00am 13.1 12.2 10.8 86 1.2 SE 6 7 3 4 1015.7 1015.7 0.0
22/02:30am 13.6 12.9 11.5 87 1.1 SSE 6 9 3 5 1015.8 1015.8 0.0
22/02:00am 13.8 14.3 11.5 86 1.2 CALM 0 0 0 0 1016.0 1016.0 0.0
22/01:30am 13.6 13.9 11.0 84 1.4 CALM 0 0 0 0 1016.0 1016.0 0.0
22/01:00am 14.2 13.4 11.2 82 1.6 SE 6 7 3 4 1016.3 1016.3 0.0
22/12:30am 14.4 13.1 11.2 81 1.7 SE 9 11 5 6 1016.3 1016.3 0.0
22/12:00am 14.8 13.5 11.2 79 1.9 SSE 9 11 5 6 1016.5 1016.5 0.0
 
Date/Time
EDT
Temp
°C
App
Temp
°C
Dew
Point
°C
Rel
Hum
%
Delta-T
°C
Wind Press
QNH
hPa
Press
MSL
hPa
Rain since
9am
mm
Dir  Spd
km/h
Gust
km/h
Spd
kts
Gust
kts
21/11:30pm 15.3 14.0 11.3 77 2.1 SSE 9 13 5 7 1016.6 1016.6 0.0
21/11:00pm 15.4 13.6 11.0 75 2.3 SE 11 15 6 8 1016.7 1016.7 0.0
21/10:30pm 16.2 13.7 11.2 72 2.7 SE 15 19 8 10 1016.7 1016.7 0.0
21/10:00pm 16.8 14.4 11.3 70 3.0 SE 15 20 8 11 1016.6 1016.6 0.0
21/09:30pm 17.3 14.9 11.3 68 3.2 SE 15 20 8 11 1016.4 1016.4 0.0
21/09:00pm 17.7 14.4 10.8 64 3.7 SE 19 22 10 12 1016.3 1016.3 0.0
21/08:30pm 18.8 15.9 11.1 61 4.2 SE 17 22 9 12 1016.0 1016.0 0.0
21/08:00pm 20.0 17.2 11.5 58 4.7 SSE 17 24 9 13 1015.7 1015.7 0.0
21/07:30pm 19.8 17.1 13.0 65 3.9 SW 19 24 10 13 1015.5 1015.5 0.0
21/07:00pm 20.0 16.6 12.5 62 4.2 SSW 22 28 12 15 1015.3 1015.3 0.0
21/06:30pm 20.7 17.9 13.2 62 4.3 SW 20 24 11 13 1015.1 1015.1 0.0
21/06:00pm 20.6 17.6 12.1 58 4.8 SSW 19 26 10 14 1015.0 1015.0 0.0
21/05:30pm 21.3 18.8 12.2 56 5.1 SW 17 24 9 13 1015.2 1015.2 0.0
21/05:00pm 20.9 17.4 11.0 53 5.4 SW 20 24 11 13 1015.4 1015.4 0.0
21/04:30pm 20.9 16.9 8.9 46 6.3 SW 20 28 11 15 1015.3 1015.3 0.0
21/04:00pm 20.8 17.3 10.9 53 5.4 SSW 20 30 11 16 1015.4 1015.4 0.0
21/03:30pm 20.1 16.7 11.1 56 4.9 SSW 20 32 11 17 1015.6 1015.6 0.0
21/03:00pm 20.0 16.8 11.8 59 4.5 SW 20 28 11 15 1015.6 1015.6 0.0
21/02:30pm 19.9 16.3 11.9 60 4.4 SSW 22 32 12 17 1015.7 1015.7 0.0
21/02:00pm 19.8 16.6 11.8 60 4.4 SW 20 30 11 16 1015.9 1015.9 0.0
21/01:30pm 19.1 14.9 11.2 60 4.3 SW 24 33 13 18 1016.0 1016.0 0.0
21/01:00pm 19.8 16.3 12.1 61 4.3 SSW 22 32 12 17 1016.1 1016.1 0.0
21/12:30pm 19.4 16.3 12.2 63 4.0 SSW 20 30 11 16 1016.0 1016.0 0.0
21/12:00pm 19.1 16.0 12.1 64 3.9 SW 20 30 11 16 1015.9 1015.9 0.0
21/11:30am 18.8 16.3 12.3 66 3.6 SW 17 24 9 13 1015.9 1015.9 0.0
21/11:00am 18.3 15.4 11.1 63 3.9 SW 17 24 9 13 1015.6 1015.6 0.0
21/10:30am 18.5 15.6 9.8 57 4.6 S 15 24 8 13 1015.5 1015.5 0.0
21/10:00am 17.9 14.3 9.8 59 4.3 S 19 32 10 17 1015.2 1015.2 0.0
21/09:30am 18.0 14.6 10.4 61 4.1 SSW 19 26 10 14 1015.1 1015.1 0.0
21/09:00am 17.1 14.4 11.8 71 2.9 SSW 17 24 9 13 1014.8 1014.8 0.8
21/08:30am 16.7 14.2 11.0 69 3.1 SW 15 20 8 11 1014.4 1014.4 0.8
21/08:00am 17.1 14.3 10.0 63 3.7 SE 15 20 8 11 1013.8 1013.8 0.8
21/07:30am 16.5 14.9 10.1 66 3.4 SE 9 13 5 7 1013.4 1013.4 0.8
21/07:00am 14.9 13.1 9.5 70 2.8 ESE 9 11 5 6 1013.0 1013.0 0.8
21/06:30am 14.8 12.2 9.2 69 2.9 SE 13 15 7 8 1012.5 1012.5 0.8
21/06:00am 14.8 12.5 9.0 68 3.0 SE 11 17 6 9 1012.3 1012.3 0.8
21/05:30am 14.9 12.2 8.8 67 3.1 SSE 13 15 7 8 1011.9 1011.9 0.8
21/05:00am 14.9 11.7 8.6 66 3.2 SE 15 19 8 10 1011.5 1011.5 0.8
21/04:30am 15.1 12.3 8.6 65 3.3 SSE 13 20 7 11 1011.2 1011.2 0.8
21/04:00am 15.2 12.4 8.7 65 3.3 SSE 13 20 7 11 1011.0 1011.0 0.8
21/03:30am 15.0 12.2 8.5 65 3.3 S 13 20 7 11 1011.0 1011.0 0.8
21/03:00am 15.1 11.8 7.9 62 3.6 S 15 22 8 12 1010.9 1010.9 0.8
21/02:30am 15.4 11.2 7.4 59 4.0 S 19 28 10 15 1010.6 1010.6 0.8
21/02:00am 15.6 11.6 8.4 62 3.7 SSW 19 28 10 15 1010.5 1010.5 0.8
21/01:30am 15.7 11.6 7.7 59 4.0 S 19 24 10 13 1010.2 1010.2 0.8
21/01:00am 15.9 11.9 8.2 60 3.9 SSW 19 26 10 14 1010.0 1010.0 0.8
21/12:30am 16.0 11.7 9.4 65 3.4 SSW 22 35 12 19 1009.8 1009.8 0.8
21/12:00am 16.1 12.2 9.3 64 3.5 SSW 20 26 11 14 1009.7 1009.7 0.8
 
Date/Time
EDT
Temp
°C
App
Temp
°C
Dew
Point
°C
Rel
Hum
%
Delta-T
°C
Wind Press
QNH
hPa
Press
MSL
hPa
Rain since
9am
mm
Dir  Spd
km/h
Gust
km/h
Spd
kts
Gust
kts
20/11:30pm 16.1 12.2 8.6 61 3.8 SSW 19 26 10 14 1009.6 1009.6 0.8
20/11:00pm 16.1 12.2 8.8 62 3.7 SSW 19 28 10 15 1009.3 1009.3 0.8
20/10:30pm 16.1 12.2 9.5 65 3.4 S 20 30 11 16 1009.2 1009.2 0.8
20/10:00pm 16.3 11.7 9.5 64 3.5 SSW 24 35 13 19 1009.1 1009.1 0.8
20/09:30pm 16.3 11.0 9.9 66 3.4 SSW 28 39 15 21 1008.9 1008.9 0.8
20/09:00pm 16.5 10.7 9.4 63 3.7 SSW 30 44 16 24 1008.6 1008.6 0.8
20/08:30pm 16.5 11.1 9.4 63 3.7 SSW 28 39 15 21 1008.3 1008.3 0.8
20/08:00pm 16.7 11.4 9.9 64 3.6 SW 28 39 15 21 1007.8 1007.8 0.8
20/07:30pm 16.8 11.2 10.2 65 3.5 SW 30 43 16 23 1007.2 1007.2 0.8
20/07:00pm 17.0 11.8 10.4 65 3.5 SW 28 44 15 24 1006.5 1006.5 0.8
20/06:30pm 17.6 11.9 11.2 66 3.5 SW 32 48 17 26 1005.8 1005.8 0.8
20/06:00pm 17.2 10.9 11.0 67 3.3 SW 35 50 19 27 1005.5 1005.5 0.8
20/05:47pm 17.5 10.9 11.3 67 3.4 SW 37 57 20 31 1005.4 1005.4 0.8
20/05:30pm 17.6 11.8 11.6 68 3.3 SW 33 50 18 27 1005.0 1005.0 0.8
20/05:22pm 18.0 12.3 11.8 67 3.4 SW 33 52 18 28 1004.8 1004.8 0.8
20/05:00pm 17.9 11.4 11.7 67 3.4 SW 37 52 20 28 1004.3 1004.3 0.8
20/04:47pm 18.4 12.4 12.2 67 3.4 SW 35 54 19 29 1003.9 1003.9 0.8
20/04:30pm 18.1 11.6 12.8 71 3.0 SW 39 54 21 29 1003.7 1003.7 0.8
20/04:00pm 18.4 12.0 13.1 71 3.0 SW 39 56 21 30 1003.1 1003.1 0.8
20/03:33pm 17.8 12.1 12.9 73 2.7 SW 35 54 19 29 1002.5 1002.5 0.8
20/03:30pm 17.7 11.5 12.6 72 2.8 SW 37 54 20 29 1002.4 1002.4 0.8
20/03:00pm 18.9 13.1 12.6 67 3.5 SW 35 54 19 29 1002.0 1002.0 0.8
20/02:30pm 20.6 15.5 13.6 64 4.0 SW 33 54 18 29 1001.8 1001.8 0.8
20/02:00pm 19.8 12.4 12.3 62 4.2 SW 43 61 23 33 1001.7 1001.7 0.8
20/01:30pm 19.5 14.1 12.8 65 3.8 SW 33 57 18 31 1001.1 1001.1 0.8
20/01:00pm 18.5 12.6 13.6 73 2.8 SW 37 56 20 30 1000.9 1000.9 0.8
20/12:30pm 17.4 12.6 13.9 80 2.0 SW 32 52 17 28 1000.3 1000.3 0.8
20/12:24pm 17.2 11.3 13.7 80 2.0 SW 37 56 20 30 1000.1 1000.1 0.8
20/12:14pm 17.3 12.5 14.0 81 1.9 SW 32 50 17 27 999.7 999.7 0.8
20/12:00pm 17.3 12.3 14.0 81 1.9 SW 33 48 18 26 999.4 999.4 0.8
20/11:32am 17.7 13.3 14.2 80 2.0 SW 30 48 16 26 998.6 998.6 0.8
20/11:30am 17.7 13.0 14.2 80 2.0 WSW 32 46 17 25 998.5 998.5 0.8
20/11:12am 17.6 13.7 14.3 81 1.9 SW 28 46 15 25 997.9 997.9 0.8
20/11:00am 17.5 13.1 14.2 81 1.9 WSW 30 46 16 25 997.6 997.6 0.8
20/10:30am 18.5 15.6 15.0 80 2.0 W 24 35 13 19 996.5 996.5 0.8
20/10:00am 18.4 15.2 16.2 87 1.3 W 28 46 15 25 996.2 996.2 0.8
20/09:49am 18.0 14.0 16.2 89 1.1 W 32 50 17 27 996.1 996.1 0.8
20/09:36am 17.5 14.4 16.5 94 0.6 W 28 46 15 25 996.0 996.0 0.8
20/09:33am 17.9 14.9 16.9 94 0.6 W 28 44 15 24 995.9 995.9 0.8
20/09:30am 17.7 15.1 16.9 95 0.5 W 26 44 14 24 995.8 995.8 0.8
20/09:12am 18.0 16.7 17.2 95 0.5 W 20 32 11 17 995.6 995.6 0.6

Other Formats:

Comma delimited format used in spreadsheet applications
http://www.bom.gov.au/fwo/IDV60801/IDV60801.94870.axf

JavaScript Object Notation format (JSON) in row-major order
http://www.bom.gov.au/fwo/IDV60801/IDV60801.94870.json